createdAt,value
2018-10-09T00:00:12.615Z,11.20
2018-10-09T00:02:41.865Z,11.20
2018-10-09T00:05:11.115Z,11.20
2018-10-09T00:07:40.363Z,11.20
2018-10-09T00:10:10.401Z,11.10
2018-10-09T00:12:39.614Z,11.20
2018-10-09T00:15:08.891Z,11.10
2018-10-09T00:17:38.172Z,11.20
2018-10-09T00:20:07.447Z,11.20
2018-10-09T00:22:36.759Z,11.10
2018-10-09T00:25:06.941Z,11.10
2018-10-09T00:27:36.183Z,11.10
2018-10-09T00:30:05.457Z,11.10
2018-10-09T00:32:34.696Z,11.10
2018-10-09T00:35:04.002Z,11.10
2018-10-09T00:37:33.258Z,11.00
2018-10-09T00:40:02.504Z,11.00
2018-10-09T00:42:31.742Z,11.00
2018-10-09T00:45:01.002Z,11.00
2018-10-09T00:47:30.759Z,11.00
2018-10-09T00:50:00.068Z,10.90
2018-10-09T00:52:29.314Z,10.90
2018-10-09T00:54:58.651Z,10.90
2018-10-09T00:57:27.985Z,10.80
2018-10-09T00:59:57.391Z,10.80
2018-10-09T01:02:26.678Z,10.70
2018-10-09T01:04:56.023Z,10.70
2018-10-09T01:07:25.263Z,10.70
2018-10-09T01:09:54.788Z,10.70
2018-10-09T01:12:24.094Z,10.60
2018-10-09T01:14:53.340Z,10.60
2018-10-09T01:17:22.591Z,10.50
2018-10-09T01:19:52.570Z,10.50
2018-10-09T01:22:21.809Z,10.40
2018-10-09T01:24:51.144Z,10.40
2018-10-09T01:27:20.379Z,10.30
2018-10-09T01:29:49.628Z,10.30
2018-10-09T01:32:19.051Z,10.30
2018-10-09T01:34:48.280Z,10.20
2018-10-09T01:37:17.531Z,10.20
2018-10-09T01:39:46.854Z,10.10
2018-10-09T01:42:16.134Z,10.10
2018-10-09T01:44:45.409Z,10.00
2018-10-09T01:47:14.731Z,10.00
2018-10-09T01:49:43.967Z,9.90
2018-10-09T01:52:13.217Z,9.90
2018-10-09T01:54:42.431Z,9.90
2018-10-09T01:57:11.882Z,9.90
2018-10-09T01:59:41.222Z,9.80
2018-10-09T02:02:10.449Z,9.80
2018-10-09T02:04:39.722Z,9.80
2018-10-09T02:07:09.089Z,9.80
2018-10-09T02:09:38.291Z,9.80
2018-10-09T02:12:07.518Z,9.70
2018-10-09T02:14:36.775Z,9.70
2018-10-09T02:17:06.185Z,9.70
2018-10-09T02:19:36.112Z,9.70
2018-10-09T02:22:05.420Z,9.70
2018-10-09T02:24:34.731Z,9.70
2018-10-09T02:27:04.823Z,9.70
2018-10-09T02:29:34.039Z,9.70
2018-10-09T02:32:03.260Z,9.70
2018-10-09T02:34:32.511Z,9.60
2018-10-09T02:37:01.723Z,9.60
2018-10-09T02:39:30.967Z,9.50
2018-10-09T02:42:00.212Z,9.50
2018-10-09T02:44:29.444Z,9.50
2018-10-09T02:46:58.682Z,9.50
2018-10-09T02:49:27.942Z,9.40
2018-10-09T02:51:57.626Z,9.40
2018-10-09T02:54:26.882Z,9.40
2018-10-09T02:56:56.126Z,9.50
2018-10-09T02:59:25.542Z,9.50
2018-10-09T03:01:54.787Z,9.50
2018-10-09T03:04:24.591Z,9.50
2018-10-09T03:06:53.849Z,9.50
2018-10-09T03:09:23.170Z,9.50
2018-10-09T03:11:52.498Z,9.50
2018-10-09T03:14:21.812Z,9.40
2018-10-09T03:16:51.053Z,9.40
2018-10-09T03:19:21.131Z,9.40
2018-10-09T03:21:50.351Z,9.40
2018-10-09T03:24:19.606Z,9.40
2018-10-09T03:26:48.862Z,9.40
2018-10-09T03:29:19.023Z,9.40
2018-10-09T03:31:48.238Z,9.30
2018-10-09T03:34:17.504Z,9.30
2018-10-09T03:36:46.718Z,9.30
2018-10-09T03:39:15.942Z,9.30
2018-10-09T03:41:45.183Z,9.40
2018-10-09T03:44:14.418Z,9.40
2018-10-09T03:46:43.644Z,9.30
2018-10-09T03:49:12.890Z,9.30
2018-10-09T03:51:42.117Z,9.30
2018-10-09T03:54:11.362Z,9.30
2018-10-09T03:56:40.607Z,9.30
2018-10-09T03:59:11.442Z,9.30
2018-10-09T04:01:40.992Z,9.30
2018-10-09T04:04:11.070Z,9.20
2018-10-09T04:06:40.304Z,9.30
2018-10-09T04:09:11.968Z,9.30
2018-10-09T04:11:41.105Z,9.30
2018-10-09T04:14:10.396Z,9.30
2018-10-09T04:16:39.631Z,9.30
2018-10-09T04:19:08.932Z,9.30
2018-10-09T04:21:38.152Z,9.20
2018-10-09T04:24:07.391Z,9.20
2018-10-09T04:26:36.646Z,9.10
2018-10-09T04:29:05.983Z,9.10
2018-10-09T04:31:35.267Z,9.10
2018-10-09T04:34:04.535Z,9.10
2018-10-09T04:36:33.765Z,9.10
2018-10-09T04:39:03.251Z,9.10
2018-10-09T04:41:32.531Z,9.10
2018-10-09T04:44:01.742Z,9.10
2018-10-09T04:46:31.234Z,9.10
2018-10-09T04:49:01.320Z,9.00
2018-10-09T04:51:31.111Z,9.00
2018-10-09T04:54:00.351Z,9.00
2018-10-09T04:56:29.690Z,9.00
2018-10-09T04:58:58.952Z,9.00
2018-10-09T05:01:28.997Z,9.00
2018-10-09T05:03:58.223Z,9.00
2018-10-09T05:06:27.495Z,9.00
2018-10-09T05:08:56.727Z,9.00
2018-10-09T05:11:25.952Z,9.00
2018-10-09T05:13:55.179Z,9.00
2018-10-09T05:16:24.408Z,9.00
2018-10-09T05:18:53.627Z,9.00
2018-10-09T05:21:22.848Z,9.10
2018-10-09T05:23:52.062Z,9.10
2018-10-09T05:26:21.381Z,9.10
2018-10-09T05:28:50.735Z,9.20
2018-10-09T05:31:20.039Z,9.30
2018-10-09T05:33:49.247Z,9.30
2018-10-09T05:36:18.501Z,9.40
2018-10-09T05:38:47.750Z,9.40
2018-10-09T05:41:17.509Z,9.50
2018-10-09T05:43:46.788Z,9.50
2018-10-09T05:46:16.011Z,9.50
2018-10-09T05:48:45.263Z,9.50
2018-10-09T05:51:14.485Z,9.50
2018-10-09T05:53:43.718Z,9.50
2018-10-09T05:56:12.955Z,9.50
2018-10-09T05:58:42.192Z,9.60
2018-10-09T06:01:11.447Z,9.60
2018-10-09T06:03:40.666Z,9.60
2018-10-09T06:06:10.086Z,9.70
2018-10-09T06:08:39.427Z,9.70
2018-10-09T06:11:08.827Z,9.70
2018-10-09T06:13:38.096Z,9.70
2018-10-09T06:16:07.514Z,9.70
2018-10-09T06:18:36.779Z,9.70
2018-10-09T06:21:06.336Z,9.70
2018-10-09T06:23:35.850Z,9.70
2018-10-09T06:26:05.466Z,9.80
2018-10-09T06:28:35.007Z,9.80
2018-10-09T06:31:04.832Z,9.80
2018-10-09T06:33:34.287Z,9.80
2018-10-09T06:36:03.814Z,9.80
2018-10-09T06:38:33.417Z,9.80
2018-10-09T06:41:02.920Z,9.80
2018-10-09T06:43:32.360Z,9.80
2018-10-09T06:46:01.958Z,9.90
2018-10-09T06:48:31.440Z,10.00
2018-10-09T06:51:00.889Z,10.00
2018-10-09T06:53:30.435Z,10.10
2018-10-09T06:55:59.808Z,10.20
2018-10-09T06:58:29.346Z,10.30
2018-10-09T07:00:59.483Z,10.40
2018-10-09T07:03:29.001Z,10.50
2018-10-09T07:05:58.476Z,10.50
2018-10-09T07:08:28.060Z,10.60
2018-10-09T07:10:58.655Z,10.60
2018-10-09T07:13:28.482Z,10.60
2018-10-09T07:15:57.955Z,10.70
2018-10-09T07:18:27.524Z,10.70
2018-10-09T07:20:57.035Z,10.80
2018-10-09T07:23:26.472Z,10.90
2018-10-09T07:25:55.928Z,10.90
2018-10-09T07:28:25.419Z,11.00
2018-10-09T07:30:55.023Z,11.10
2018-10-09T07:33:24.481Z,11.10
2018-10-09T07:35:54.067Z,11.20
2018-10-09T07:38:23.688Z,11.20
2018-10-09T07:40:53.146Z,11.30
2018-10-09T07:43:22.654Z,11.40
2018-10-09T07:45:52.277Z,11.40
2018-10-09T07:48:21.827Z,11.40
2018-10-09T07:50:51.980Z,11.40
2018-10-09T07:53:21.500Z,11.50
2018-10-09T07:55:50.951Z,11.60
2018-10-09T07:58:20.432Z,11.60
2018-10-09T08:00:49.900Z,11.70
2018-10-09T08:03:19.437Z,11.70
2018-10-09T08:05:49.196Z,11.80
2018-10-09T08:08:18.769Z,11.80
2018-10-09T08:10:48.320Z,11.90
2018-10-09T08:13:19.160Z,11.90
2018-10-09T08:15:48.602Z,12.00
2018-10-09T08:18:18.095Z,12.00
2018-10-09T08:20:47.572Z,12.10
2018-10-09T08:23:17.058Z,12.10
2018-10-09T08:25:46.602Z,12.20
2018-10-09T08:28:16.079Z,12.20
2018-10-09T08:30:46.368Z,12.30
2018-10-09T08:33:16.517Z,12.40
2018-10-09T08:35:45.985Z,12.50
2018-10-09T08:38:15.906Z,12.50
2018-10-09T08:40:45.356Z,12.60
2018-10-09T08:43:14.909Z,12.60
2018-10-09T08:45:44.591Z,12.60
2018-10-09T08:48:14.097Z,12.70
2018-10-09T08:50:43.866Z,12.80
2018-10-09T08:53:13.292Z,12.90
2018-10-09T08:55:42.786Z,13.10
2018-10-09T08:58:12.272Z,13.20
2018-10-09T09:00:42.455Z,13.30
2018-10-09T09:03:11.935Z,13.50
2018-10-09T09:05:41.361Z,13.60
2018-10-09T09:08:10.792Z,13.70
2018-10-09T09:10:40.490Z,13.90
2018-10-09T09:13:09.984Z,13.80
2018-10-09T09:15:39.483Z,13.90
2018-10-09T09:18:08.926Z,13.90
2018-10-09T09:20:38.519Z,14.00
2018-10-09T09:23:07.987Z,14.10
2018-10-09T09:25:37.848Z,14.20
2018-10-09T09:28:07.345Z,14.30
2018-10-09T09:30:36.844Z,14.60
2018-10-09T09:33:06.361Z,14.70
2018-10-09T09:35:35.866Z,14.80
2018-10-09T09:38:06.105Z,14.90
2018-10-09T09:40:35.623Z,14.90
2018-10-09T09:43:05.303Z,14.90
2018-10-09T09:45:34.758Z,14.90
2018-10-09T09:48:04.237Z,15.00
2018-10-09T09:50:33.960Z,14.90
2018-10-09T09:53:03.384Z,15.00
2018-10-09T09:55:32.847Z,15.20
2018-10-09T09:58:02.436Z,15.40
2018-10-09T10:00:37.071Z,15.50
2018-10-09T10:03:06.569Z,15.50
2018-10-09T10:05:36.025Z,15.70
2018-10-09T10:08:05.503Z,15.70
2018-10-09T10:10:35.925Z,15.80
2018-10-09T10:13:05.367Z,15.90
2018-10-09T10:15:34.898Z,15.90
2018-10-09T10:18:04.413Z,16.10
2018-10-09T10:20:34.275Z,16.10
2018-10-09T10:23:03.734Z,16.30
2018-10-09T10:25:33.240Z,16.40
2018-10-09T10:28:02.705Z,16.40
2018-10-09T10:30:32.210Z,16.50
2018-10-09T10:33:01.760Z,16.50
2018-10-09T10:35:31.246Z,16.70
2018-10-09T10:38:00.705Z,16.70
2018-10-09T10:40:30.216Z,16.80
2018-10-09T10:42:59.745Z,16.80
2018-10-09T10:45:29.204Z,16.80
2018-10-09T10:47:58.716Z,17.00
2018-10-09T10:50:28.204Z,17.30
2018-10-09T10:52:57.745Z,17.40
2018-10-09T10:55:27.470Z,17.40
2018-10-09T10:57:56.934Z,17.40
2018-10-09T11:00:26.419Z,17.50
2018-10-09T11:02:55.986Z,17.50
2018-10-09T11:05:25.435Z,17.60
2018-10-09T11:07:55.771Z,17.50
2018-10-09T11:10:25.215Z,17.50
2018-10-09T11:12:54.745Z,17.50
2018-10-09T11:15:24.264Z,17.60
2018-10-09T11:17:53.734Z,17.80
2018-10-09T11:20:23.201Z,17.70
2018-10-09T11:22:52.668Z,18.00
2018-10-09T11:25:22.148Z,17.80
2018-10-09T11:27:51.645Z,17.80
2018-10-09T11:30:21.133Z,17.80
2018-10-09T11:32:50.609Z,17.70
2018-10-09T11:35:20.086Z,18.00
2018-10-09T11:37:49.620Z,18.30
2018-10-09T11:40:19.225Z,18.20
2018-10-09T11:42:48.779Z,18.00
2018-10-09T11:45:18.305Z,18.10
2018-10-09T11:47:47.810Z,18.20
2018-10-09T11:50:17.323Z,18.70
2018-10-09T11:52:46.908Z,18.60
2018-10-09T11:55:16.463Z,18.40
2018-10-09T11:57:45.968Z,18.30
2018-10-09T12:00:15.428Z,18.50
2018-10-09T12:02:45.181Z,18.80
2018-10-09T12:05:14.616Z,19.00
2018-10-09T12:07:44.093Z,19.00
2018-10-09T12:10:13.592Z,18.90
2018-10-09T12:12:43.059Z,18.90
2018-10-09T12:15:12.549Z,19.10
2018-10-09T12:17:42.699Z,19.30
2018-10-09T12:20:12.721Z,19.30
2018-10-09T12:22:42.176Z,19.30
2018-10-09T12:25:11.737Z,19.20
2018-10-09T12:27:41.227Z,19.30
2018-10-09T12:30:10.792Z,19.20
2018-10-09T12:32:40.471Z,19.30
2018-10-09T12:35:09.990Z,19.30
2018-10-09T12:37:39.424Z,19.30
2018-10-09T12:40:09.029Z,19.30
2018-10-09T12:42:38.537Z,19.40
2018-10-09T12:45:08.107Z,19.40
2018-10-09T12:47:37.612Z,19.80
2018-10-09T12:50:07.144Z,19.90
2018-10-09T12:52:36.996Z,19.60
2018-10-09T12:55:06.605Z,19.50
2018-10-09T12:57:36.152Z,19.40
2018-10-09T13:00:05.844Z,19.50
2018-10-09T13:02:35.299Z,19.70
2018-10-09T13:05:04.828Z,19.60
2018-10-09T13:07:34.288Z,19.60
2018-10-09T13:10:03.841Z,19.40
2018-10-09T13:12:33.336Z,19.60
2018-10-09T13:15:03.963Z,19.70
2018-10-09T13:17:33.630Z,20.00
2018-10-09T13:20:03.039Z,19.90
2018-10-09T13:22:32.803Z,20.20
2018-10-09T13:25:02.057Z,20.20
2018-10-09T13:27:31.811Z,20.40
2018-10-09T13:30:01.305Z,20.50
2018-10-09T13:32:30.781Z,20.50
2018-10-09T13:35:00.223Z,20.20
2018-10-09T13:37:29.705Z,20.30
2018-10-09T13:39:59.762Z,20.40
2018-10-09T13:42:29.264Z,20.10
2018-10-09T13:44:58.764Z,20.10
2018-10-09T13:47:28.309Z,20.20
2018-10-09T13:49:57.696Z,20.20
2018-10-09T13:52:27.235Z,20.40
2018-10-09T13:54:56.707Z,20.60
2018-10-09T13:57:26.242Z,20.90
2018-10-09T13:59:55.664Z,20.90
2018-10-09T14:02:25.127Z,20.60
2018-10-09T14:04:54.625Z,20.80
2018-10-09T14:07:24.093Z,20.80
2018-10-09T14:09:53.659Z,21.00
2018-10-09T14:12:23.277Z,20.80
2018-10-09T14:14:52.745Z,20.80
2018-10-09T14:17:22.164Z,20.80
2018-10-09T14:19:51.839Z,20.40
2018-10-09T14:22:21.484Z,20.40
2018-10-09T14:24:50.937Z,20.60
2018-10-09T14:27:20.497Z,20.60
2018-10-09T14:29:50.031Z,20.90
2018-10-09T14:32:19.586Z,20.90
2018-10-09T14:34:49.221Z,20.80
2018-10-09T14:37:18.660Z,20.60
2018-10-09T14:39:48.192Z,20.60
2018-10-09T14:42:18.224Z,20.40
2018-10-09T14:44:47.744Z,20.30
2018-10-09T14:47:17.238Z,20.30
2018-10-09T14:49:46.455Z,20.10
2018-10-09T14:52:15.703Z,19.90
2018-10-09T14:54:44.983Z,20.20
2018-10-09T14:57:14.235Z,20.10
2018-10-09T14:59:43.502Z,20.20
2018-10-09T15:02:12.934Z,20.40
2018-10-09T15:04:42.146Z,19.90
2018-10-09T15:07:11.450Z,19.50
2018-10-09T15:09:41.381Z,19.90
2018-10-09T15:12:10.549Z,20.20
2018-10-09T15:14:39.893Z,20.80
2018-10-09T15:17:09.263Z,20.90
2018-10-09T15:19:38.460Z,21.10
2018-10-09T15:22:07.769Z,20.90
2018-10-09T15:24:37.051Z,20.80
2018-10-09T15:27:06.541Z,20.20
2018-10-09T15:29:35.904Z,19.80
2018-10-09T15:32:05.240Z,19.70
2018-10-09T15:34:34.500Z,19.90
2018-10-09T15:37:03.776Z,20.10
2018-10-09T15:39:33.049Z,20.40
2018-10-09T15:42:02.405Z,20.60
2018-10-09T15:44:31.812Z,20.40
2018-10-09T15:47:01.861Z,20.30
2018-10-09T15:49:31.163Z,19.60
2018-10-09T15:52:00.494Z,19.20
2018-10-09T15:54:29.744Z,18.80
2018-10-09T15:56:59.147Z,18.60
2018-10-09T15:59:28.492Z,18.30
2018-10-09T16:01:57.896Z,18.10
2018-10-09T16:04:27.139Z,18.00
2018-10-09T16:06:56.431Z,17.70
2018-10-09T16:09:25.807Z,17.50
2018-10-09T16:11:55.354Z,17.40
2018-10-09T16:14:24.704Z,17.20
2018-10-09T16:16:53.989Z,17.10
2018-10-09T16:19:23.955Z,17.00
2018-10-09T16:21:53.281Z,16.90
2018-10-09T16:24:22.545Z,16.80
2018-10-09T16:26:51.976Z,16.70
2018-10-09T16:29:21.273Z,16.60
2018-10-09T16:31:50.532Z,16.50
2018-10-09T16:34:19.804Z,16.40
2018-10-09T16:36:49.089Z,16.30
2018-10-09T16:39:18.343Z,16.20
2018-10-09T16:41:48.413Z,16.10
2018-10-09T16:44:17.682Z,16.00
2018-10-09T16:46:46.960Z,15.90
2018-10-09T16:49:16.263Z,15.80
2018-10-09T16:51:45.521Z,15.70
2018-10-09T16:54:14.793Z,15.60
2018-10-09T16:56:44.841Z,15.50
2018-10-09T16:59:14.221Z,15.40
2018-10-09T17:01:43.607Z,15.30
2018-10-09T17:04:12.904Z,15.20
2018-10-09T17:06:42.225Z,15.20
2018-10-09T17:09:11.940Z,15.00
2018-10-09T17:11:41.889Z,14.90
2018-10-09T17:14:11.788Z,14.80
2018-10-09T17:16:41.123Z,14.70
2018-10-09T17:19:10.667Z,14.60
2018-10-09T17:21:39.956Z,14.50
2018-10-09T17:24:09.204Z,14.30
2018-10-09T17:26:38.479Z,14.20
2018-10-09T17:29:07.752Z,14.30
2018-10-09T17:31:37.101Z,14.00
2018-10-09T17:34:06.460Z,13.80
2018-10-09T17:36:35.851Z,13.80
2018-10-09T17:39:08.109Z,13.60
2018-10-09T17:41:38.336Z,13.50
2018-10-09T17:44:07.683Z,13.40
2018-10-09T17:46:37.391Z,13.40
2018-10-09T17:49:06.716Z,13.30
2018-10-09T17:51:36.313Z,13.30
2018-10-09T17:54:05.610Z,13.20
2018-10-09T17:56:34.848Z,13.10
2018-10-09T17:59:04.141Z,13.10
2018-10-09T18:01:33.448Z,13.10
2018-10-09T18:04:02.806Z,13.00
2018-10-09T18:06:32.145Z,13.00
2018-10-09T18:09:01.535Z,13.00
2018-10-09T18:11:30.786Z,12.90
2018-10-09T18:14:00.185Z,12.90
2018-10-09T18:16:29.485Z,12.80
2018-10-09T18:18:58.787Z,12.80
2018-10-09T18:21:28.076Z,12.80
2018-10-09T18:23:57.330Z,12.70
2018-10-09T18:26:26.589Z,12.70
2018-10-09T18:28:55.859Z,12.80
2018-10-09T18:31:25.169Z,12.70
2018-10-09T18:33:54.480Z,12.70
2018-10-09T18:36:23.904Z,12.60
2018-10-09T18:38:53.161Z,12.70
2018-10-09T18:41:22.533Z,12.70
2018-10-09T18:43:51.905Z,12.60
2018-10-09T18:46:21.234Z,12.60
2018-10-09T18:48:50.510Z,12.60
2018-10-09T18:51:19.820Z,12.60
2018-10-09T18:53:49.148Z,12.50
2018-10-09T18:56:18.384Z,12.50
2018-10-09T18:58:48.419Z,12.40
2018-10-09T19:01:17.607Z,12.30
2018-10-09T19:03:46.949Z,12.30
2018-10-09T19:06:16.210Z,12.30
2018-10-09T19:08:45.488Z,12.20
2018-10-09T19:11:15.005Z,12.10
2018-10-09T19:13:47.428Z,12.00
2018-10-09T19:16:16.859Z,11.90
2018-10-09T19:18:46.146Z,11.90
2018-10-09T19:21:15.544Z,11.80
2018-10-09T19:23:44.964Z,11.70
2018-10-09T19:26:14.600Z,11.70
2018-10-09T19:28:43.912Z,11.60
2018-10-09T19:31:13.476Z,11.50
2018-10-09T19:33:42.907Z,11.50
2018-10-09T19:36:12.251Z,11.60
2018-10-09T19:38:41.536Z,11.50
2018-10-09T19:41:10.800Z,11.50
2018-10-09T19:43:40.142Z,11.40
2018-10-09T19:46:09.467Z,11.40
2018-10-09T19:48:38.764Z,11.30
2018-10-09T19:51:08.185Z,11.20
2018-10-09T19:53:37.600Z,11.30
2018-10-09T19:56:06.943Z,11.30
2018-10-09T19:58:36.240Z,11.40
2018-10-09T20:01:05.516Z,11.50
2018-10-09T20:03:34.778Z,11.50
2018-10-09T20:06:04.086Z,11.40
2018-10-09T20:08:33.434Z,11.40
2018-10-09T20:11:02.720Z,11.30
2018-10-09T20:13:32.040Z,11.30
2018-10-09T20:16:02.081Z,11.20
2018-10-09T20:18:31.317Z,11.10
2018-10-09T20:21:00.893Z,11.20
2018-10-09T20:23:30.157Z,11.20
2018-10-09T20:25:59.449Z,11.20
2018-10-09T20:28:28.760Z,11.10
2018-10-09T20:30:58.361Z,11.00
2018-10-09T20:33:27.700Z,10.90
2018-10-09T20:35:56.897Z,10.70
2018-10-09T20:38:26.180Z,10.60
2018-10-09T20:40:56.162Z,10.60
2018-10-09T20:43:25.405Z,10.60
2018-10-09T20:45:54.647Z,10.60
2018-10-09T20:48:23.914Z,10.50
2018-10-09T20:50:53.156Z,10.40
2018-10-09T20:53:22.406Z,10.20
2018-10-09T20:55:51.672Z,10.10
2018-10-09T20:58:20.902Z,10.00
2018-10-09T21:00:50.191Z,10.00
2018-10-09T21:03:19.462Z,9.90
2018-10-09T21:05:48.824Z,9.90
2018-10-09T21:08:17.982Z,9.80
2018-10-09T21:10:47.269Z,9.70
2018-10-09T21:13:18.007Z,9.70
2018-10-09T21:15:47.244Z,9.70
2018-10-09T21:18:16.528Z,9.70
2018-10-09T21:20:49.562Z,9.70
2018-10-09T21:23:18.829Z,9.60
2018-10-09T21:25:48.082Z,9.60
2018-10-09T21:28:17.368Z,9.60
2018-10-09T21:30:46.609Z,9.60
2018-10-09T21:33:15.930Z,9.60
2018-10-09T21:35:45.160Z,9.50
2018-10-09T21:38:14.392Z,9.50
2018-10-09T21:40:43.728Z,9.50
2018-10-09T21:43:13.140Z,9.40
2018-10-09T21:45:42.400Z,9.40
2018-10-09T21:48:11.646Z,9.30
2018-10-09T21:50:40.889Z,9.30
2018-10-09T21:53:10.214Z,9.20
2018-10-09T21:55:39.500Z,9.10
2018-10-09T21:58:08.784Z,9.10
2018-10-09T22:00:43.433Z,9.10
2018-10-09T22:03:13.572Z,9.10
2018-10-09T22:05:43.527Z,9.00
2018-10-09T22:08:13.051Z,9.00
2018-10-09T22:10:42.313Z,8.90
2018-10-09T22:13:11.547Z,9.00
2018-10-09T22:15:40.872Z,9.00
2018-10-09T22:18:10.244Z,8.90
2018-10-09T22:20:39.593Z,8.90
2018-10-09T22:23:08.839Z,8.90
2018-10-09T22:25:38.108Z,9.00
2018-10-09T22:28:07.412Z,9.00
2018-10-09T22:30:36.726Z,9.00
2018-10-09T22:33:06.584Z,9.00
2018-10-09T22:35:35.900Z,8.90
2018-10-09T22:38:05.224Z,9.00
2018-10-09T22:40:34.475Z,8.90
2018-10-09T22:43:03.753Z,8.90
2018-10-09T22:45:33.010Z,8.90
2018-10-09T22:48:02.980Z,8.90
2018-10-09T22:50:32.219Z,8.80
2018-10-09T22:53:01.490Z,8.70
2018-10-09T22:55:30.747Z,8.70
2018-10-09T22:57:59.976Z,8.70
2018-10-09T23:00:29.256Z,8.70
2018-10-09T23:02:58.487Z,8.70
2018-10-09T23:05:27.747Z,8.70
2018-10-09T23:07:56.988Z,8.70
2018-10-09T23:10:26.217Z,8.70
2018-10-09T23:12:55.660Z,8.60
2018-10-09T23:15:25.780Z,8.60
2018-10-09T23:17:55.015Z,8.50
2018-10-09T23:20:24.273Z,8.40
2018-10-09T23:22:53.551Z,8.30
2018-10-09T23:25:22.887Z,8.30
2018-10-09T23:27:52.099Z,8.30
2018-10-09T23:30:21.401Z,8.20
2018-10-09T23:32:50.642Z,8.00
2018-10-09T23:35:20.000Z,7.90
2018-10-09T23:37:49.382Z,7.80
2018-10-09T23:40:18.642Z,7.90
2018-10-09T23:42:47.962Z,7.90
2018-10-09T23:45:17.100Z,7.90
2018-10-09T23:47:46.409Z,7.90
2018-10-09T23:50:15.645Z,7.90
2018-10-09T23:52:44.876Z,7.90
2018-10-09T23:55:14.139Z,7.90
2018-10-09T23:57:43.504Z,7.90
